createdAt,value
2018-05-18T00:01:45.505Z,10.10
2018-05-18T00:04:18.064Z,11.20
2018-05-18T00:06:50.602Z,9.60
2018-05-18T00:09:23.138Z,10.80
2018-05-18T00:11:55.645Z,9.80
2018-05-18T00:14:28.170Z,9.30
2018-05-18T00:17:00.694Z,10.67
2018-05-18T00:19:33.222Z,10.27
2018-05-18T00:22:06.258Z,9.93
2018-05-18T00:24:38.839Z,10.57
2018-05-18T00:27:11.372Z,10.13
2018-05-18T00:29:43.909Z,10.57
2018-05-18T00:32:16.433Z,10.65
2018-05-18T00:34:48.985Z,10.37
2018-05-18T00:37:21.515Z,11.43
2018-05-18T00:39:54.063Z,11.23
2018-05-18T00:42:26.565Z,10.00
2018-05-18T00:44:59.169Z,9.73
2018-05-18T00:47:31.675Z,9.87
2018-05-18T00:50:04.224Z,10.60
2018-05-18T00:52:36.770Z,9.90
2018-05-18T00:55:21.048Z,9.87
2018-05-18T00:57:53.556Z,9.50
2018-05-18T01:00:26.098Z,11.73
2018-05-18T01:02:58.624Z,10.47
2018-05-18T01:05:31.154Z,9.57
2018-05-18T01:08:03.668Z,10.73
2018-05-18T01:10:36.223Z,12.23
2018-05-18T01:13:08.788Z,11.73
2018-05-18T01:15:41.531Z,12.83
2018-05-18T01:18:14.052Z,11.77
2018-05-18T01:20:46.593Z,11.70
2018-05-18T01:23:19.115Z,11.57
2018-05-18T01:25:52.067Z,11.07
2018-05-18T01:28:24.587Z,13.20
2018-05-18T01:30:57.118Z,11.63
2018-05-18T01:33:29.634Z,12.97
2018-05-18T01:36:02.165Z,12.43
2018-05-18T01:38:34.693Z,10.93
2018-05-18T01:41:07.969Z,12.03
2018-05-18T01:43:40.516Z,11.87
2018-05-18T01:46:13.029Z,11.43
2018-05-18T01:48:45.575Z,11.30
2018-05-18T01:51:18.082Z,12.30
2018-05-18T01:53:50.624Z,11.80
2018-05-18T01:56:23.143Z,11.43
2018-05-18T01:58:55.668Z,11.13
2018-05-18T02:01:28.179Z,10.63
2018-05-18T02:04:00.706Z,11.47
2018-05-18T02:06:33.229Z,10.67
2018-05-18T02:09:06.649Z,11.00
2018-05-18T02:11:39.213Z,8.93
2018-05-18T02:14:11.757Z,12.77
2018-05-18T02:16:44.316Z,10.73
2018-05-18T02:19:16.871Z,10.63
2018-05-18T02:21:49.372Z,9.33
2018-05-18T02:24:21.900Z,12.97
2018-05-18T02:26:54.415Z,11.50
2018-05-18T02:29:26.952Z,12.43
2018-05-18T02:31:59.467Z,11.23
2018-05-18T02:34:31.997Z,14.33
2018-05-18T02:37:04.522Z,10.40
2018-05-18T02:39:37.512Z,10.93
2018-05-18T02:42:10.043Z,12.40
2018-05-18T02:44:42.602Z,11.13
2018-05-18T02:47:20.684Z,11.17
2018-05-18T02:49:53.235Z,10.43
2018-05-18T02:52:25.810Z,11.00
2018-05-18T02:54:58.307Z,9.33
2018-05-18T02:57:30.818Z,10.87
2018-05-18T03:00:03.352Z,11.40
2018-05-18T03:02:36.859Z,10.03
2018-05-18T03:05:09.415Z,10.80
2018-05-18T03:07:42.173Z,11.30
2018-05-18T03:10:14.719Z,12.23
2018-05-18T03:12:47.223Z,10.87
2018-05-18T03:15:19.776Z,11.17
2018-05-18T03:17:52.293Z,11.37
2018-05-18T03:20:24.833Z,10.43
2018-05-18T03:22:57.348Z,10.80
2018-05-18T03:25:29.890Z,10.83
2018-05-18T03:28:02.412Z,10.13
2018-05-18T03:30:35.648Z,11.47
2018-05-18T03:33:08.398Z,12.57
2018-05-18T03:35:40.985Z,10.93
2018-05-18T03:38:13.513Z,9.37
2018-05-18T03:40:46.073Z,9.57
2018-05-18T03:43:18.586Z,9.57
2018-05-18T03:45:51.127Z,9.13
2018-05-18T03:48:23.633Z,9.67
2018-05-18T03:50:56.178Z,8.87
2018-05-18T03:53:28.705Z,10.00
2018-05-18T03:56:01.240Z,9.03
2018-05-18T03:58:33.758Z,9.37
2018-05-18T04:01:06.673Z,8.50
2018-05-18T04:03:51.263Z,9.43
2018-05-18T04:06:37.001Z,10.13
2018-05-18T04:09:09.546Z,9.90
2018-05-18T04:11:42.087Z,9.30
2018-05-18T04:14:14.625Z,10.10
2018-05-18T04:16:47.170Z,10.23
2018-05-18T04:19:19.684Z,9.67
2018-05-18T04:21:52.212Z,10.10
2018-05-18T04:24:24.723Z,9.07
2018-05-18T04:26:57.259Z,10.10
2018-05-18T04:29:29.778Z,10.43
2018-05-18T04:32:02.328Z,8.30
2018-05-18T04:34:36.716Z,8.40
2018-05-18T04:37:09.248Z,8.90
2018-05-18T04:39:41.825Z,9.73
2018-05-18T04:42:14.369Z,9.43
2018-05-18T04:44:46.958Z,9.00
2018-05-18T04:47:19.494Z,9.43
2018-05-18T04:49:51.998Z,8.67
2018-05-18T04:52:24.546Z,10.27
2018-05-18T04:54:57.110Z,9.63
2018-05-18T04:57:29.611Z,9.03
2018-05-18T05:00:02.145Z,9.23
2018-05-18T05:02:34.650Z,9.30
2018-05-18T05:05:07.870Z,9.20
2018-05-18T05:07:40.388Z,8.77
2018-05-18T05:10:12.932Z,8.77
2018-05-18T05:12:45.459Z,9.77
2018-05-18T05:15:17.984Z,9.47
2018-05-18T05:17:50.540Z,9.37
2018-05-18T05:20:23.045Z,8.90
2018-05-18T05:22:55.556Z,9.90
2018-05-18T05:25:28.084Z,10.47
2018-05-18T05:28:00.606Z,9.37
2018-05-18T05:30:33.225Z,8.43
2018-05-18T05:33:06.566Z,9.13
2018-05-18T05:35:39.103Z,9.23
2018-05-18T05:38:11.654Z,10.07
2018-05-18T05:40:44.297Z,10.03
2018-05-18T05:43:16.869Z,9.03
2018-05-18T05:45:49.408Z,8.37
2018-05-18T05:48:21.933Z,9.00
2018-05-18T05:50:54.449Z,8.57
2018-05-18T05:53:26.963Z,8.93
2018-05-18T05:55:59.507Z,9.10
2018-05-18T05:58:32.107Z,9.60
2018-05-18T06:01:04.650Z,10.00
2018-05-18T06:03:37.486Z,8.70
2018-05-18T06:06:10.075Z,9.07
2018-05-18T06:08:42.628Z,9.40
2018-05-18T06:11:15.282Z,9.37
2018-05-18T06:16:26.774Z,9.00
2018-05-18T06:18:59.287Z,9.83
2018-05-18T06:21:31.820Z,9.53
2018-05-18T06:24:04.338Z,9.10
2018-05-18T06:26:37.520Z,10.35
2018-05-18T06:29:10.043Z,9.53
2018-05-18T06:31:42.603Z,9.37
2018-05-18T06:34:15.564Z,9.33
2018-05-18T06:36:48.085Z,9.37
2018-05-18T06:39:20.593Z,9.83
2018-05-18T06:41:53.117Z,8.03
2018-05-18T06:44:25.625Z,10.17
2018-05-18T06:46:58.178Z,9.30
2018-05-18T06:49:30.714Z,9.33
2018-05-18T06:52:03.233Z,9.73
2018-05-18T06:54:36.031Z,9.37
2018-05-18T06:57:08.597Z,9.50
2018-05-18T06:59:41.116Z,9.20
2018-05-18T07:02:13.677Z,9.80
2018-05-18T07:04:46.222Z,9.30
2018-05-18T07:07:18.745Z,8.47
2018-05-18T07:09:51.255Z,9.37
2018-05-18T07:12:23.786Z,7.90
2018-05-18T07:14:56.293Z,9.10
2018-05-18T07:17:28.833Z,9.53
2018-05-18T07:20:01.356Z,8.97
2018-05-18T07:22:33.886Z,8.93
2018-05-18T07:25:08.005Z,9.03
2018-05-18T07:27:40.563Z,9.83
2018-05-18T07:30:13.098Z,9.20
2018-05-18T07:32:45.658Z,10.40
2018-05-18T07:35:18.193Z,9.40
2018-05-18T07:37:50.725Z,9.77
2018-05-18T07:40:23.241Z,8.20
2018-05-18T07:42:55.795Z,8.40
2018-05-18T07:45:28.308Z,8.43
2018-05-18T07:48:00.838Z,9.85
2018-05-18T07:50:33.352Z,9.30
2018-05-18T07:53:07.091Z,8.95
2018-05-18T07:55:39.621Z,8.85
2018-05-18T07:58:12.266Z,8.90
2018-05-18T08:00:44.971Z,8.73
2018-05-18T08:03:17.520Z,9.05
2018-05-18T08:05:50.133Z,8.18
2018-05-18T08:08:22.649Z,9.18
2018-05-18T08:10:55.179Z,9.00
2018-05-18T08:13:27.689Z,8.82
2018-05-18T08:16:00.363Z,9.18
2018-05-18T08:18:32.888Z,8.35
2018-05-18T08:21:06.913Z,7.90
2018-05-18T08:23:41.389Z,9.30
2018-05-18T08:26:13.933Z,8.52
2018-05-18T08:28:58.242Z,8.60
2018-05-18T08:31:30.777Z,9.55
2018-05-18T08:34:03.371Z,8.93
2018-05-18T08:36:36.179Z,8.60
2018-05-18T08:39:08.903Z,8.07
2018-05-18T08:41:41.392Z,8.75
2018-05-18T08:44:13.897Z,8.43
2018-05-18T08:46:46.430Z,8.32
2018-05-18T08:49:18.936Z,8.40
2018-05-18T08:51:51.470Z,8.02
2018-05-18T08:54:23.984Z,8.38
2018-05-18T08:56:56.530Z,7.72
2018-05-18T08:59:29.037Z,8.25
2018-05-18T09:02:01.607Z,9.43
2018-05-18T09:04:34.132Z,8.23
2018-05-18T09:07:06.814Z,8.88
2018-05-18T09:09:39.343Z,8.90
2018-05-18T09:12:11.889Z,8.70
2018-05-18T09:14:44.408Z,8.32
2018-05-18T09:17:16.941Z,9.35
2018-05-18T09:19:49.461Z,9.77
2018-05-18T09:22:21.990Z,9.27
2018-05-18T09:24:54.512Z,9.48
2018-05-18T09:27:27.053Z,9.30
2018-05-18T09:29:59.574Z,8.00
2018-05-18T09:32:32.092Z,9.32
2018-05-18T09:35:04.648Z,8.48
2018-05-18T09:37:37.425Z,8.45
2018-05-18T09:40:10.259Z,8.25
2018-05-18T09:42:42.783Z,8.52
2018-05-18T09:45:15.371Z,8.75
2018-05-18T09:47:47.835Z,8.23
2018-05-18T09:50:20.346Z,8.55
2018-05-18T09:52:52.877Z,8.18
2018-05-18T09:55:25.440Z,7.87
2018-05-18T09:57:57.936Z,8.27
2018-05-18T10:00:30.456Z,8.07
2018-05-18T10:03:02.980Z,8.70
2018-05-18T10:05:35.805Z,9.18
2018-05-18T10:08:08.377Z,9.10
2018-05-18T10:10:40.892Z,9.32
2018-05-18T10:13:13.425Z,9.02
2018-05-18T10:15:45.934Z,8.20
2018-05-18T10:18:18.541Z,8.77
2018-05-18T10:20:50.997Z,8.68
2018-05-18T10:23:23.527Z,8.93
2018-05-18T10:25:56.040Z,9.32
2018-05-18T10:28:28.568Z,8.65
2018-05-18T10:31:01.095Z,8.85
2018-05-18T10:33:33.636Z,8.90
2018-05-18T10:36:06.180Z,8.73
2018-05-18T10:38:38.727Z,8.60
2018-05-18T10:41:11.252Z,8.82
2018-05-18T10:43:43.790Z,9.45
2018-05-18T10:46:16.298Z,8.63
2018-05-18T10:48:48.828Z,9.10
2018-05-18T10:51:21.339Z,10.60
2018-05-18T10:53:53.870Z,8.93
2018-05-18T10:56:26.381Z,8.57
2018-05-18T10:58:58.923Z,8.00
2018-05-18T11:01:31.447Z,8.85
2018-05-18T11:04:03.971Z,8.38
2018-05-18T11:06:36.597Z,9.30
2018-05-18T11:09:09.238Z,9.45
2018-05-18T11:11:42.083Z,9.50
2018-05-18T11:14:14.640Z,8.85
2018-05-18T11:16:47.095Z,9.38
2018-05-18T11:19:19.625Z,9.45
2018-05-18T11:21:52.138Z,8.95
2018-05-18T11:24:24.675Z,8.60
2018-05-18T11:26:57.225Z,8.43
2018-05-18T11:29:29.749Z,9.20
2018-05-18T11:32:02.280Z,7.90
2018-05-18T11:34:34.820Z,9.05
2018-05-18T11:37:07.466Z,7.60
2018-05-18T11:39:40.005Z,8.52
2018-05-18T11:42:12.545Z,8.23
2018-05-18T11:44:45.095Z,7.37
2018-05-18T11:47:17.687Z,7.95
2018-05-18T11:49:50.196Z,7.28
2018-05-18T11:52:22.732Z,8.40
2018-05-18T11:54:55.249Z,7.93
2018-05-18T11:57:27.969Z,8.18
2018-05-18T12:00:00.544Z,9.13
2018-05-18T12:02:33.318Z,8.70
2018-05-18T12:05:06.577Z,7.95
2018-05-18T12:07:39.200Z,7.70
2018-05-18T12:10:11.857Z,8.27
2018-05-18T12:12:44.395Z,7.60
2018-05-18T12:15:16.963Z,7.57
2018-05-18T12:17:49.550Z,7.50
2018-05-18T12:20:22.082Z,8.50
2018-05-18T12:22:54.613Z,8.48
2018-05-18T12:25:27.122Z,7.75
2018-05-18T12:27:59.649Z,7.03
2018-05-18T12:30:32.531Z,7.55
2018-05-18T12:33:05.189Z,8.18
2018-05-18T12:35:38.013Z,7.57
2018-05-18T12:38:10.743Z,8.43
2018-05-18T12:40:43.219Z,7.85
2018-05-18T12:43:15.751Z,8.07
2018-05-18T12:45:48.300Z,9.07
2018-05-18T12:48:20.825Z,8.35
2018-05-18T12:50:53.478Z,8.35
2018-05-18T12:53:26.007Z,7.47
2018-05-18T12:55:58.541Z,7.65
2018-05-18T12:58:31.065Z,8.70
2018-05-18T13:01:03.587Z,8.20
2018-05-18T13:03:36.159Z,7.90
2018-05-18T13:06:09.821Z,7.93
2018-05-18T13:08:42.883Z,8.52
2018-05-18T13:11:15.653Z,8.50
2018-05-18T13:13:48.243Z,7.53
2018-05-18T13:16:21.052Z,9.02
2018-05-18T13:18:53.634Z,8.77
2018-05-18T13:21:26.150Z,8.93
2018-05-18T13:23:58.677Z,9.00
2018-05-18T13:26:31.279Z,9.07
2018-05-18T13:29:03.826Z,8.77
2018-05-18T13:31:36.691Z,7.95
2018-05-18T13:34:09.220Z,8.43
2018-05-18T13:36:41.745Z,8.18
2018-05-18T13:39:14.298Z,9.45
2018-05-18T13:41:46.813Z,8.10
2018-05-18T13:44:19.376Z,7.97
2018-05-18T13:46:51.899Z,8.32
2018-05-18T13:49:25.060Z,8.57
2018-05-18T13:51:57.597Z,7.28
2018-05-18T13:54:30.169Z,8.60
2018-05-18T13:57:02.770Z,8.68
2018-05-18T13:59:36.211Z,8.27
2018-05-18T14:02:08.736Z,7.85
2018-05-18T14:04:41.681Z,8.15
2018-05-18T14:07:14.188Z,7.95
2018-05-18T14:09:46.784Z,8.30
2018-05-18T14:12:19.308Z,7.85
2018-05-18T14:14:51.833Z,8.13
2018-05-18T14:17:24.349Z,8.20
2018-05-18T14:19:56.887Z,7.62
2018-05-18T14:22:29.393Z,8.20
2018-05-18T14:25:01.929Z,8.32
2018-05-18T14:27:34.478Z,8.38
2018-05-18T14:30:07.153Z,9.43
2018-05-18T14:32:39.828Z,7.78
2018-05-18T14:35:12.906Z,8.00
2018-05-18T14:37:45.470Z,8.85
2018-05-18T14:40:17.981Z,8.02
2018-05-18T14:42:50.527Z,7.00
2018-05-18T14:45:23.067Z,7.53
2018-05-18T14:47:55.580Z,8.70
2018-05-18T14:50:28.121Z,8.00
2018-05-18T14:53:00.645Z,8.20
2018-05-18T14:55:33.460Z,7.82
2018-05-18T14:58:06.729Z,9.07
2018-05-18T15:00:39.281Z,9.23
2018-05-18T15:03:12.030Z,8.07
2018-05-18T15:05:44.930Z,8.95
2018-05-18T15:08:17.653Z,8.23
2018-05-18T15:10:50.375Z,8.32
2018-05-18T15:13:22.857Z,8.80
2018-05-18T15:15:55.374Z,8.63
2018-05-18T15:18:27.904Z,8.50
2018-05-18T15:21:00.412Z,7.70
2018-05-18T15:23:32.963Z,8.82
2018-05-18T15:26:05.684Z,8.43
2018-05-18T15:28:38.723Z,8.20
2018-05-18T15:31:11.193Z,7.60
2018-05-18T15:33:44.049Z,8.00
2018-05-18T15:36:16.582Z,9.07
2018-05-18T15:38:49.113Z,7.82
2018-05-18T15:41:21.634Z,7.95
2018-05-18T15:43:54.169Z,9.15
2018-05-18T15:46:26.689Z,7.20
2018-05-18T15:48:59.218Z,8.80
2018-05-18T15:51:31.781Z,8.20
2018-05-18T15:54:04.337Z,7.95
2018-05-18T15:56:37.228Z,7.82
2018-05-18T15:59:09.784Z,7.53
2018-05-18T16:01:42.352Z,8.23
2018-05-18T16:04:14.902Z,7.70
2018-05-18T16:06:47.500Z,8.63
2018-05-18T16:09:20.047Z,7.80
2018-05-18T16:11:52.552Z,7.90
2018-05-18T16:14:25.129Z,9.00
2018-05-18T16:16:57.673Z,7.90
2018-05-18T16:19:30.214Z,8.20
2018-05-18T16:22:02.725Z,8.07
2018-05-18T16:24:35.291Z,7.07
2018-05-18T16:27:07.858Z,7.57
2018-05-18T16:29:40.501Z,7.68
2018-05-18T16:32:13.015Z,8.15
2018-05-18T16:34:45.549Z,8.32
2018-05-18T16:37:18.069Z,7.57
2018-05-18T16:39:50.593Z,7.72
2018-05-18T16:42:23.100Z,7.45
2018-05-18T16:44:55.621Z,8.32
2018-05-18T16:47:28.135Z,7.37
2018-05-18T16:50:00.668Z,8.80
2018-05-18T16:52:33.179Z,8.27
2018-05-18T16:55:05.805Z,8.57
2018-05-18T16:57:38.340Z,8.23
2018-05-18T17:00:10.939Z,8.32
2018-05-18T17:05:22.436Z,7.68
2018-05-18T17:07:54.937Z,8.63
2018-05-18T17:10:27.462Z,8.18
2018-05-18T17:12:59.977Z,7.05
2018-05-18T17:15:32.504Z,7.10
2018-05-18T17:18:05.045Z,8.38
2018-05-18T17:20:37.688Z,6.90
2018-05-18T17:23:10.356Z,7.95
2018-05-18T17:25:42.906Z,7.45
2018-05-18T17:28:15.414Z,9.05
2018-05-18T17:30:47.955Z,8.52
2018-05-18T17:33:20.461Z,8.63
2018-05-18T17:35:52.993Z,8.15
2018-05-18T17:38:25.498Z,7.03
2018-05-18T17:40:58.024Z,7.95
2018-05-18T17:43:30.528Z,7.90
2018-05-18T17:46:03.064Z,8.15
2018-05-18T17:48:35.600Z,7.45
2018-05-18T17:51:08.340Z,7.40
2018-05-18T17:53:40.873Z,6.80
2018-05-18T17:56:13.413Z,6.87
2018-05-18T17:58:45.913Z,7.28
2018-05-18T18:01:18.454Z,7.20
2018-05-18T18:03:51.218Z,6.32
2018-05-18T18:06:23.755Z,7.60
2018-05-18T18:08:56.284Z,7.47
2018-05-18T18:11:28.822Z,8.55
2018-05-18T18:14:01.356Z,7.68
2018-05-18T18:16:33.877Z,7.70
2018-05-18T18:19:07.272Z,7.25
2018-05-18T18:21:39.840Z,7.25
2018-05-18T18:24:12.430Z,7.80
2018-05-18T18:26:44.949Z,6.35
2018-05-18T18:29:17.489Z,7.45
2018-05-18T18:31:50.001Z,7.85
2018-05-18T18:34:22.535Z,7.20
2018-05-18T18:36:55.075Z,7.80
2018-05-18T18:39:27.606Z,8.18
2018-05-18T18:42:00.123Z,7.40
2018-05-18T18:44:32.676Z,7.75
2018-05-18T18:47:06.387Z,7.18
2018-05-18T18:49:38.959Z,7.07
2018-05-18T18:52:11.607Z,7.32
2018-05-18T18:54:44.034Z,6.97
2018-05-18T18:57:16.585Z,6.43
2018-05-18T18:59:49.120Z,7.32
2018-05-18T19:02:21.633Z,6.35
2018-05-18T19:04:54.173Z,7.18
2018-05-18T19:07:26.678Z,6.75
2018-05-18T19:09:59.215Z,7.03
2018-05-18T19:12:31.732Z,6.90
2018-05-18T19:15:04.329Z,7.85
2018-05-18T19:17:37.344Z,6.80
2018-05-18T19:20:09.910Z,6.87
2018-05-18T19:22:42.412Z,7.25
2018-05-18T19:25:14.954Z,6.97
2018-05-18T19:27:47.460Z,6.93
2018-05-18T19:30:19.993Z,6.60
2018-05-18T19:32:52.502Z,7.25
2018-05-18T19:35:25.025Z,7.72
2018-05-18T19:37:57.538Z,7.05
2018-05-18T19:40:30.076Z,8.27
2018-05-18T19:43:02.580Z,7.10
2018-05-18T19:45:35.175Z,8.38
2018-05-18T19:48:07.853Z,7.03
2018-05-18T19:50:40.489Z,6.68
2018-05-18T19:53:13.021Z,7.68
2018-05-18T19:55:45.542Z,7.85
2018-05-18T19:58:18.041Z,7.80
2018-05-18T20:00:50.572Z,7.47
2018-05-18T20:03:23.079Z,8.15
2018-05-18T20:05:55.606Z,6.35
2018-05-18T20:08:28.112Z,8.05
2018-05-18T20:11:00.647Z,6.97
2018-05-18T20:13:33.166Z,6.60
2018-05-18T20:16:05.700Z,7.12
2018-05-18T20:18:38.456Z,7.35
2018-05-18T20:21:11.014Z,6.70
2018-05-18T20:23:43.525Z,7.07
2018-05-18T20:26:16.052Z,7.07
2018-05-18T20:28:48.561Z,7.90
2018-05-18T20:31:21.093Z,7.47
2018-05-18T20:33:53.599Z,7.40
2018-05-18T20:36:26.135Z,7.43
2018-05-18T20:38:58.689Z,7.55
2018-05-18T20:41:31.221Z,6.70
2018-05-18T20:44:03.738Z,7.28
2018-05-18T20:46:36.289Z,6.57
2018-05-18T20:49:08.865Z,7.68
2018-05-18T20:51:41.434Z,7.53
2018-05-18T20:54:13.948Z,7.55
2018-05-18T20:56:46.476Z,6.80
2018-05-18T20:59:18.977Z,7.18
2018-05-18T21:01:51.500Z,7.18
2018-05-18T21:04:24.010Z,6.95
2018-05-18T21:06:56.533Z,7.50
2018-05-18T21:09:29.033Z,6.62
2018-05-18T21:12:01.606Z,7.10
2018-05-18T21:14:34.110Z,7.37
2018-05-18T21:17:07.144Z,7.50
2018-05-18T21:19:39.658Z,6.93
2018-05-18T21:22:12.180Z,6.82
2018-05-18T21:24:44.681Z,6.55
2018-05-18T21:27:17.205Z,6.90
2018-05-18T21:29:49.712Z,6.50
2018-05-18T21:32:22.256Z,6.85
2018-05-18T21:34:54.764Z,6.32
2018-05-18T21:37:27.295Z,5.85
2018-05-18T21:39:59.811Z,6.50
2018-05-18T21:42:32.347Z,7.00
2018-05-18T21:45:05.673Z,6.87
2018-05-18T21:47:38.245Z,6.50
2018-05-18T21:50:10.798Z,7.00
2018-05-18T21:52:43.425Z,7.20
2018-05-18T21:55:15.997Z,7.25
2018-05-18T21:57:48.515Z,7.30
2018-05-18T22:00:21.048Z,6.53
2018-05-18T22:02:53.552Z,6.93
2018-05-18T22:05:26.088Z,6.55
2018-05-18T22:07:58.590Z,6.30
2018-05-18T22:10:31.131Z,7.00
2018-05-18T22:13:03.643Z,6.82
2018-05-18T22:15:36.549Z,7.25
2018-05-18T22:18:09.108Z,6.90
2018-05-18T22:20:41.646Z,6.90
2018-05-18T22:23:14.194Z,6.75
2018-05-18T22:25:46.772Z,6.90
2018-05-18T22:28:19.289Z,8.00
2018-05-18T22:30:51.831Z,7.30
2018-05-18T22:33:24.356Z,7.03
2018-05-18T22:35:57.040Z,7.43
2018-05-18T22:38:29.516Z,6.22
2018-05-18T22:41:02.121Z,6.53
2018-05-18T22:43:35.185Z,7.72
2018-05-18T22:46:08.027Z,7.05
2018-05-18T22:48:40.597Z,7.45
2018-05-18T22:51:13.194Z,6.43
2018-05-18T22:53:45.763Z,6.45
2018-05-18T22:56:18.395Z,7.35
2018-05-18T22:58:50.954Z,8.18
2018-05-18T23:01:23.487Z,9.57
2018-05-18T23:03:55.998Z,9.32
2018-05-18T23:06:28.525Z,9.05
2018-05-18T23:09:01.051Z,7.03
2018-05-18T23:11:33.657Z,7.05
2018-05-18T23:14:06.443Z,6.40
2018-05-18T23:16:39.060Z,7.32
2018-05-18T23:19:11.585Z,6.97
2018-05-18T23:21:44.344Z,7.75
2018-05-18T23:24:16.849Z,7.80
2018-05-18T23:26:49.373Z,7.12
2018-05-18T23:29:21.868Z,7.72
2018-05-18T23:31:54.486Z,8.00
2018-05-18T23:34:26.948Z,8.20
2018-05-18T23:36:59.477Z,9.38
2018-05-18T23:39:32.038Z,7.15
2018-05-18T23:42:04.675Z,7.18
2018-05-18T23:44:38.292Z,7.15
2018-05-18T23:47:10.938Z,6.72
2018-05-18T23:49:43.493Z,6.97
2018-05-18T23:52:16.075Z,7.20
2018-05-18T23:54:48.616Z,8.30
2018-05-18T23:57:26.678Z,8.40
2018-05-18T23:59:59.194Z,7.70
